sensor_id;sensor_type;location;lat;lon;timestamp;P1;durP1;ratioP1;P2;durP2;ratioP2
6121;SDS011;3091;51.506;7.672;2023-06-14T00:00:41;10.53;;;10.23;;
6121;SDS011;3091;51.506;7.672;2023-06-14T00:03:08;10.80;;;10.40;;
6121;SDS011;3091;51.506;7.672;2023-06-14T00:05:35;10.90;;;10.60;;
6121;SDS011;3091;51.506;7.672;2023-06-14T00:08:08;12.17;;;11.73;;
6121;SDS011;3091;51.506;7.672;2023-06-14T00:10:35;13.77;;;13.27;;
6121;SDS011;3091;51.506;7.672;2023-06-14T00:13:01;13.37;;;12.87;;
6121;SDS011;3091;51.506;7.672;2023-06-14T00:15:28;12.60;;;12.20;;
6121;SDS011;3091;51.506;7.672;2023-06-14T00:17:55;12.70;;;12.30;;
6121;SDS011;3091;51.506;7.672;2023-06-14T00:20:28;13.30;;;12.90;;
6121;SDS011;3091;51.506;7.672;2023-06-14T00:22:55;13.30;;;12.80;;
6121;SDS011;3091;51.506;7.672;2023-06-14T00:25:22;11.03;;;10.70;;
6121;SDS011;3091;51.506;7.672;2023-06-14T00:27:53;12.90;;;12.40;;
6121;SDS011;3091;51.506;7.672;2023-06-14T00:30:19;11.10;;;10.80;;
6121;SDS011;3091;51.506;7.672;2023-06-14T00:32:45;11.00;;;10.70;;
6121;SDS011;3091;51.506;7.672;2023-06-14T00:35:12;11.43;;;11.03;;
6121;SDS011;3091;51.506;7.672;2023-06-14T00:37:38;10.80;;;10.50;;
6121;SDS011;3091;51.506;7.672;2023-06-14T00:40:05;13.20;;;12.60;;
6121;SDS011;3091;51.506;7.672;2023-06-14T00:42:31;11.70;;;11.20;;
6121;SDS011;3091;51.506;7.672;2023-06-14T00:45:00;12.40;;;12.00;;
6121;SDS011;3091;51.506;7.672;2023-06-14T00:47:26;13.30;;;12.80;;
6121;SDS011;3091;51.506;7.672;2023-06-14T00:49:55;13.03;;;12.53;;
6121;SDS011;3091;51.506;7.672;2023-06-14T00:52:22;12.70;;;12.30;;
6121;SDS011;3091;51.506;7.672;2023-06-14T00:54:49;13.37;;;12.87;;
6121;SDS011;3091;51.506;7.672;2023-06-14T00:57:15;12.67;;;12.27;;
6121;SDS011;3091;51.506;7.672;2023-06-14T00:59:43;13.17;;;12.67;;
6121;SDS011;3091;51.506;7.672;2023-06-14T01:02:09;12.43;;;12.03;;
6121;SDS011;3091;51.506;7.672;2023-06-14T01:04:35;13.80;;;13.27;;
6121;SDS011;3091;51.506;7.672;2023-06-14T01:07:02;13.23;;;12.73;;
6121;SDS011;3091;51.506;7.672;2023-06-14T01:09:40;12.80;;;12.40;;
6121;SDS011;3091;51.506;7.672;2023-06-14T01:12:15;12.50;;;12.10;;
6121;SDS011;3091;51.506;7.672;2023-06-14T01:14:41;10.90;;;10.60;;
6121;SDS011;3091;51.506;7.672;2023-06-14T01:17:07;10.50;;;10.20;;
6121;SDS011;3091;51.506;7.672;2023-06-14T01:19:41;11.80;;;11.33;;
6121;SDS011;3091;51.506;7.672;2023-06-14T01:22:08;11.20;;;10.90;;
6121;SDS011;3091;51.506;7.672;2023-06-14T01:24:34;12.90;;;12.40;;
6121;SDS011;3091;51.506;7.672;2023-06-14T01:27:00;12.80;;;12.40;;
6121;SDS011;3091;51.506;7.672;2023-06-14T01:29:27;12.70;;;12.30;;
6121;SDS011;3091;51.506;7.672;2023-06-14T01:31:57;12.33;;;11.93;;
6121;SDS011;3091;51.506;7.672;2023-06-14T01:34:23;13.60;;;13.10;;
6121;SDS011;3091;51.506;7.672;2023-06-14T01:36:49;12.00;;;11.60;;
6121;SDS011;3091;51.506;7.672;2023-06-14T01:39:16;11.60;;;11.20;;
6121;SDS011;3091;51.506;7.672;2023-06-14T01:41:43;11.97;;;11.57;;
6121;SDS011;3091;51.506;7.672;2023-06-14T01:44:10;11.07;;;10.70;;
6121;SDS011;3091;51.506;7.672;2023-06-14T01:46:37;11.00;;;10.67;;
6121;SDS011;3091;51.506;7.672;2023-06-14T01:49:03;12.33;;;11.93;;
6121;SDS011;3091;51.506;7.672;2023-06-14T01:51:29;12.90;;;12.50;;
6121;SDS011;3091;51.506;7.672;2023-06-14T01:53:56;13.00;;;12.50;;
6121;SDS011;3091;51.506;7.672;2023-06-14T01:56:24;12.57;;;12.17;;
6121;SDS011;3091;51.506;7.672;2023-06-14T01:58:51;12.67;;;12.27;;
6121;SDS011;3091;51.506;7.672;2023-06-14T02:01:17;12.40;;;12.00;;
6121;SDS011;3091;51.506;7.672;2023-06-14T02:03:44;11.00;;;10.70;;
6121;SDS011;3091;51.506;7.672;2023-06-14T02:06:11;10.90;;;10.60;;
6121;SDS011;3091;51.506;7.672;2023-06-14T02:08:37;12.57;;;12.10;;
6121;SDS011;3091;51.506;7.672;2023-06-14T02:11:03;12.27;;;11.63;;
6121;SDS011;3091;51.506;7.672;2023-06-14T02:13:29;10.70;;;10.40;;
6121;SDS011;3091;51.506;7.672;2023-06-14T02:15:55;13.50;;;12.90;;
6121;SDS011;3091;51.506;7.672;2023-06-14T02:18:22;12.80;;;12.30;;
6121;SDS011;3091;51.506;7.672;2023-06-14T02:20:51;12.67;;;12.27;;
6121;SDS011;3091;51.506;7.672;2023-06-14T02:23:17;12.87;;;12.40;;
6121;SDS011;3091;51.506;7.672;2023-06-14T02:25:43;12.93;;;12.50;;
6121;SDS011;3091;51.506;7.672;2023-06-14T02:28:10;12.50;;;12.10;;
6121;SDS011;3091;51.506;7.672;2023-06-14T02:30:37;13.83;;;13.23;;
6121;SDS011;3091;51.506;7.672;2023-06-14T02:33:03;14.27;;;13.60;;
6121;SDS011;3091;51.506;7.672;2023-06-14T02:35:30;11.70;;;11.30;;
6121;SDS011;3091;51.506;7.672;2023-06-14T02:37:56;11.40;;;11.00;;
6121;SDS011;3091;51.506;7.672;2023-06-14T02:40:22;11.27;;;10.97;;
6121;SDS011;3091;51.506;7.672;2023-06-14T02:42:48;11.20;;;10.90;;
6121;SDS011;3091;51.506;7.672;2023-06-14T02:45:14;11.17;;;10.87;;
6121;SDS011;3091;51.506;7.672;2023-06-14T02:47:40;11.50;;;11.10;;
6121;SDS011;3091;51.506;7.672;2023-06-14T02:50:07;12.80;;;12.40;;
6121;SDS011;3091;51.506;7.672;2023-06-14T02:52:33;13.50;;;13.00;;
6121;SDS011;3091;51.506;7.672;2023-06-14T02:54:59;13.30;;;12.80;;
6121;SDS011;3091;51.506;7.672;2023-06-14T02:57:25;13.83;;;13.23;;
6121;SDS011;3091;51.506;7.672;2023-06-14T02:59:51;13.97;;;13.43;;
6121;SDS011;3091;51.506;7.672;2023-06-14T03:02:17;14.33;;;13.70;;
6121;SDS011;3091;51.506;7.672;2023-06-14T03:04:43;12.50;;;12.10;;
6121;SDS011;3091;51.506;7.672;2023-06-14T03:07:11;12.80;;;12.40;;
6121;SDS011;3091;51.506;7.672;2023-06-14T03:09:38;13.00;;;12.60;;
6121;SDS011;3091;51.506;7.672;2023-06-14T03:12:05;12.73;;;12.33;;
6121;SDS011;3091;51.506;7.672;2023-06-14T03:14:32;13.20;;;12.70;;
6121;SDS011;3091;51.506;7.672;2023-06-14T03:16:58;13.50;;;13.00;;
6121;SDS011;3091;51.506;7.672;2023-06-14T03:19:25;13.90;;;13.40;;
6121;SDS011;3091;51.506;7.672;2023-06-14T03:21:51;11.37;;;10.97;;
6121;SDS011;3091;51.506;7.672;2023-06-14T03:24:21;10.90;;;10.60;;
6121;SDS011;3091;51.506;7.672;2023-06-14T03:26:47;10.93;;;10.63;;
6121;SDS011;3091;51.506;7.672;2023-06-14T03:29:13;12.10;;;11.70;;
6121;SDS011;3091;51.506;7.672;2023-06-14T03:34:23;12.40;;;12.00;;
6121;SDS011;3091;51.506;7.672;2023-06-14T03:36:49;12.87;;;12.37;;
6121;SDS011;3091;51.506;7.672;2023-06-14T03:39:15;12.60;;;12.20;;
6121;SDS011;3091;51.506;7.672;2023-06-14T03:41:41;12.50;;;12.10;;
6121;SDS011;3091;51.506;7.672;2023-06-14T03:44:07;11.23;;;10.93;;
6121;SDS011;3091;51.506;7.672;2023-06-14T03:46:33;11.00;;;10.70;;
6121;SDS011;3091;51.506;7.672;2023-06-14T03:48:59;11.43;;;11.03;;
6121;SDS011;3091;51.506;7.672;2023-06-14T03:51:27;11.10;;;10.80;;
6121;SDS011;3091;51.506;7.672;2023-06-14T03:53:53;11.70;;;11.30;;
6121;SDS011;3091;51.506;7.672;2023-06-14T03:56:20;11.20;;;10.90;;
6121;SDS011;3091;51.506;7.672;2023-06-14T03:58:46;11.40;;;11.00;;
6121;SDS011;3091;51.506;7.672;2023-06-14T04:01:13;11.70;;;11.30;;
6121;SDS011;3091;51.506;7.672;2023-06-14T04:03:39;13.00;;;12.60;;
6121;SDS011;3091;51.506;7.672;2023-06-14T04:06:05;12.80;;;12.40;;
6121;SDS011;3091;51.506;7.672;2023-06-14T04:08:32;13.73;;;13.23;;
6121;SDS011;3091;51.506;7.672;2023-06-14T04:10:59;13.30;;;12.80;;
6121;SDS011;3091;51.506;7.672;2023-06-14T04:13:25;13.50;;;13.00;;
6121;SDS011;3091;51.506;7.672;2023-06-14T04:15:51;13.23;;;12.73;;
6121;SDS011;3091;51.506;7.672;2023-06-14T04:18:17;13.50;;;13.00;;
6121;SDS011;3091;51.506;7.672;2023-06-14T04:20:44;13.63;;;13.13;;
6121;SDS011;3091;51.506;7.672;2023-06-14T04:23:11;13.50;;;13.00;;
6121;SDS011;3091;51.506;7.672;2023-06-14T04:25:37;13.70;;;13.20;;
6121;SDS011;3091;51.506;7.672;2023-06-14T04:28:05;13.13;;;12.73;;
6121;SDS011;3091;51.506;7.672;2023-06-14T04:30:33;13.70;;;13.20;;
6121;SDS011;3091;51.506;7.672;2023-06-14T04:33:01;13.50;;;13.00;;
6121;SDS011;3091;51.506;7.672;2023-06-14T04:35:30;14.50;;;14.00;;
6121;SDS011;3091;51.506;7.672;2023-06-14T04:37:59;13.03;;;12.53;;
6121;SDS011;3091;51.506;7.672;2023-06-14T04:40:26;14.03;;;13.53;;
6121;SDS011;3091;51.506;7.672;2023-06-14T04:42:52;13.23;;;12.73;;
6121;SDS011;3091;51.506;7.672;2023-06-14T04:45:19;13.53;;;13.03;;
6121;SDS011;3091;51.506;7.672;2023-06-14T04:47:46;13.60;;;13.10;;
6121;SDS011;3091;51.506;7.672;2023-06-14T04:50:12;13.17;;;12.67;;
6121;SDS011;3091;51.506;7.672;2023-06-14T04:52:38;13.20;;;12.70;;
6121;SDS011;3091;51.506;7.672;2023-06-14T04:55:04;13.60;;;13.10;;
6121;SDS011;3091;51.506;7.672;2023-06-14T04:57:31;12.50;;;12.00;;
6121;SDS011;3091;51.506;7.672;2023-06-14T04:59:57;13.37;;;12.87;;
6121;SDS011;3091;51.506;7.672;2023-06-14T05:02:25;11.57;;;11.17;;
6121;SDS011;3091;51.506;7.672;2023-06-14T05:04:52;12.63;;;12.13;;
6121;SDS011;3091;51.506;7.672;2023-06-14T05:07:19;11.73;;;11.33;;
6121;SDS011;3091;51.506;7.672;2023-06-14T05:09:45;12.23;;;11.80;;
6121;SDS011;3091;51.506;7.672;2023-06-14T05:12:13;14.13;;;13.43;;
6121;SDS011;3091;51.506;7.672;2023-06-14T05:14:43;14.63;;;14.03;;
6121;SDS011;3091;51.506;7.672;2023-06-14T05:17:09;14.80;;;14.20;;
6121;SDS011;3091;51.506;7.672;2023-06-14T05:19:35;12.17;;;11.77;;
6121;SDS011;3091;51.506;7.672;2023-06-14T05:22:03;12.20;;;11.80;;
6121;SDS011;3091;51.506;7.672;2023-06-14T05:24:30;12.50;;;12.10;;
6121;SDS011;3091;51.506;7.672;2023-06-14T05:26:57;12.20;;;11.80;;
6121;SDS011;3091;51.506;7.672;2023-06-14T05:29:23;12.87;;;12.47;;
6121;SDS011;3091;51.506;7.672;2023-06-14T05:31:49;12.53;;;12.13;;
6121;SDS011;3091;51.506;7.672;2023-06-14T05:34:18;12.13;;;11.73;;
6121;SDS011;3091;51.506;7.672;2023-06-14T05:36:44;12.63;;;12.23;;
6121;SDS011;3091;51.506;7.672;2023-06-14T05:39:10;13.67;;;13.17;;
6121;SDS011;3091;51.506;7.672;2023-06-14T05:41:36;13.40;;;12.90;;
6121;SDS011;3091;51.506;7.672;2023-06-14T05:44:04;15.67;;;14.97;;
6121;SDS011;3091;51.506;7.672;2023-06-14T05:46:31;14.13;;;13.63;;
6121;SDS011;3091;51.506;7.672;2023-06-14T05:48:56;13.30;;;12.80;;
6121;SDS011;3091;51.506;7.672;2023-06-14T05:51:23;13.63;;;13.13;;
6121;SDS011;3091;51.506;7.672;2023-06-14T05:53:52;13.50;;;13.00;;
6121;SDS011;3091;51.506;7.672;2023-06-14T05:56:19;14.67;;;14.07;;
6121;SDS011;3091;51.506;7.672;2023-06-14T05:58:45;14.80;;;14.20;;
6121;SDS011;3091;51.506;7.672;2023-06-14T06:01:11;14.27;;;13.77;;
6121;SDS011;3091;51.506;7.672;2023-06-14T06:03:38;13.70;;;13.20;;
6121;SDS011;3091;51.506;7.672;2023-06-14T06:06:04;14.67;;;14.07;;
6121;SDS011;3091;51.506;7.672;2023-06-14T06:08:30;13.57;;;13.07;;
6121;SDS011;3091;51.506;7.672;2023-06-14T06:10:57;13.60;;;13.10;;
6121;SDS011;3091;51.506;7.672;2023-06-14T06:13:23;13.20;;;12.70;;
6121;SDS011;3091;51.506;7.672;2023-06-14T06:15:49;12.47;;;12.03;;
6121;SDS011;3091;51.506;7.672;2023-06-14T06:18:15;11.67;;;11.27;;
6121;SDS011;3091;51.506;7.672;2023-06-14T06:20:42;12.45;;;12.00;;
6121;SDS011;3091;51.506;7.672;2023-06-14T06:23:09;12.20;;;11.80;;
6121;SDS011;3091;51.506;7.672;2023-06-14T06:25:35;16.43;;;15.73;;
6121;SDS011;3091;51.506;7.672;2023-06-14T06:28:01;11.90;;;11.40;;
6121;SDS011;3091;51.506;7.672;2023-06-14T06:30:27;11.80;;;11.40;;
6121;SDS011;3091;51.506;7.672;2023-06-14T06:32:53;13.53;;;13.03;;
6121;SDS011;3091;51.506;7.672;2023-06-14T06:35:20;11.70;;;11.30;;
6121;SDS011;3091;51.506;7.672;2023-06-14T06:37:46;12.40;;;11.90;;
6121;SDS011;3091;51.506;7.672;2023-06-14T06:40:15;11.93;;;11.53;;
6121;SDS011;3091;51.506;7.672;2023-06-14T06:42:41;11.77;;;11.37;;
6121;SDS011;3091;51.506;7.672;2023-06-14T06:45:07;12.40;;;12.00;;
6121;SDS011;3091;51.506;7.672;2023-06-14T06:47:33;12.93;;;12.30;;
6121;SDS011;3091;51.506;7.672;2023-06-14T06:49:59;12.40;;;12.00;;
6121;SDS011;3091;51.506;7.672;2023-06-14T06:52:25;12.10;;;11.70;;
6121;SDS011;3091;51.506;7.672;2023-06-14T06:54:51;12.00;;;11.60;;
6121;SDS011;3091;51.506;7.672;2023-06-14T06:57:20;12.60;;;12.20;;
6121;SDS011;3091;51.506;7.672;2023-06-14T06:59:47;13.33;;;12.83;;
6121;SDS011;3091;51.506;7.672;2023-06-14T07:02:13;14.20;;;13.70;;
6121;SDS011;3091;51.506;7.672;2023-06-14T07:04:39;14.80;;;14.20;;
6121;SDS011;3091;51.506;7.672;2023-06-14T07:07:06;15.27;;;14.17;;
6121;SDS011;3091;51.506;7.672;2023-06-14T07:09:34;13.90;;;13.40;;
6121;SDS011;3091;51.506;7.672;2023-06-14T07:12:00;15.17;;;14.50;;
6121;SDS011;3091;51.506;7.672;2023-06-14T07:14:26;14.37;;;13.47;;
6121;SDS011;3091;51.506;7.672;2023-06-14T07:16:52;13.67;;;13.17;;
6121;SDS011;3091;51.506;7.672;2023-06-14T07:19:18;14.40;;;13.90;;
6121;SDS011;3091;51.506;7.672;2023-06-14T07:21:44;14.10;;;13.50;;
6121;SDS011;3091;51.506;7.672;2023-06-14T07:24:10;13.70;;;13.10;;
6121;SDS011;3091;51.506;7.672;2023-06-14T07:26:36;13.40;;;12.90;;
6121;SDS011;3091;51.506;7.672;2023-06-14T07:29:02;12.80;;;12.40;;
6121;SDS011;3091;51.506;7.672;2023-06-14T07:31:29;12.53;;;12.13;;
6121;SDS011;3091;51.506;7.672;2023-06-14T07:33:56;12.40;;;12.00;;
6121;SDS011;3091;51.506;7.672;2023-06-14T07:36:22;12.80;;;12.40;;
6121;SDS011;3091;51.506;7.672;2023-06-14T07:38:48;12.83;;;12.33;;
6121;SDS011;3091;51.506;7.672;2023-06-14T07:41:14;12.70;;;12.30;;
6121;SDS011;3091;51.506;7.672;2023-06-14T07:43:40;12.47;;;12.07;;
6121;SDS011;3091;51.506;7.672;2023-06-14T07:46:06;13.57;;;12.93;;
6121;SDS011;3091;51.506;7.672;2023-06-14T07:48:36;12.87;;;12.37;;
6121;SDS011;3091;51.506;7.672;2023-06-14T07:51:02;13.30;;;12.80;;
6121;SDS011;3091;51.506;7.672;2023-06-14T07:53:29;12.63;;;12.23;;
6121;SDS011;3091;51.506;7.672;2023-06-14T07:55:56;14.50;;;13.90;;
6121;SDS011;3091;51.506;7.672;2023-06-14T07:58:22;13.83;;;13.33;;
6121;SDS011;3091;51.506;7.672;2023-06-14T08:00:48;14.00;;;13.50;;
6121;SDS011;3091;51.506;7.672;2023-06-14T08:03:14;13.70;;;13.20;;
6121;SDS011;3091;51.506;7.672;2023-06-14T08:05:40;13.50;;;13.00;;
6121;SDS011;3091;51.506;7.672;2023-06-14T08:08:07;14.23;;;13.73;;
6121;SDS011;3091;51.506;7.672;2023-06-14T08:10:33;14.20;;;13.60;;
6121;SDS011;3091;51.506;7.672;2023-06-14T08:12:59;13.97;;;13.40;;
6121;SDS011;3091;51.506;7.672;2023-06-14T08:15:25;13.40;;;12.90;;
6121;SDS011;3091;51.506;7.672;2023-06-14T08:17:51;13.30;;;12.80;;
6121;SDS011;3091;51.506;7.672;2023-06-14T08:20:17;13.97;;;13.47;;
6121;SDS011;3091;51.506;7.672;2023-06-14T08:22:43;13.50;;;13.00;;
6121;SDS011;3091;51.506;7.672;2023-06-14T08:25:11;14.27;;;13.77;;
6121;SDS011;3091;51.506;7.672;2023-06-14T08:27:37;15.30;;;14.70;;
6121;SDS011;3091;51.506;7.672;2023-06-14T08:30:03;14.10;;;13.60;;
6121;SDS011;3091;51.506;7.672;2023-06-14T08:32:29;13.37;;;12.87;;
6121;SDS011;3091;51.506;7.672;2023-06-14T08:34:55;12.90;;;12.50;;
6121;SDS011;3091;51.506;7.672;2023-06-14T08:37:21;12.70;;;12.30;;
6121;SDS011;3091;51.506;7.672;2023-06-14T08:39:47;13.27;;;12.77;;
6121;SDS011;3091;51.506;7.672;2023-06-14T08:42:14;13.20;;;12.70;;
6121;SDS011;3091;51.506;7.672;2023-06-14T08:44:40;12.77;;;12.37;;
6121;SDS011;3091;51.506;7.672;2023-06-14T08:47:07;13.00;;;12.60;;
6121;SDS011;3091;51.506;7.672;2023-06-14T08:49:34;13.10;;;12.60;;
6121;SDS011;3091;51.506;7.672;2023-06-14T08:52:01;13.10;;;12.70;;
6121;SDS011;3091;51.506;7.672;2023-06-14T08:54:28;13.57;;;13.07;;
6121;SDS011;3091;51.506;7.672;2023-06-14T08:56:56;14.63;;;14.07;;
6121;SDS011;3091;51.506;7.672;2023-06-14T08:59:27;14.50;;;13.90;;
6121;SDS011;3091;51.506;7.672;2023-06-14T09:01:54;13.20;;;12.80;;
6121;SDS011;3091;51.506;7.672;2023-06-14T09:04:20;13.43;;;12.93;;
6121;SDS011;3091;51.506;7.672;2023-06-14T09:06:47;13.00;;;12.60;;
6121;SDS011;3091;51.506;7.672;2023-06-14T09:09:20;13.23;;;12.83;;
6121;SDS011;3091;51.506;7.672;2023-06-14T09:11:47;13.70;;;13.20;;
6121;SDS011;3091;51.506;7.672;2023-06-14T09:14:14;14.40;;;13.80;;
6121;SDS011;3091;51.506;7.672;2023-06-14T09:16:40;13.80;;;13.30;;
6121;SDS011;3091;51.506;7.672;2023-06-14T09:19:06;14.30;;;13.80;;
6121;SDS011;3091;51.506;7.672;2023-06-14T09:21:33;15.57;;;14.97;;
6121;SDS011;3091;51.506;7.672;2023-06-14T09:24:01;13.80;;;13.30;;
6121;SDS011;3091;51.506;7.672;2023-06-14T09:26:27;13.80;;;13.30;;
6121;SDS011;3091;51.506;7.672;2023-06-14T09:28:54;14.23;;;13.73;;
6121;SDS011;3091;51.506;7.672;2023-06-14T09:31:20;13.80;;;13.30;;
6121;SDS011;3091;51.506;7.672;2023-06-14T09:33:50;14.10;;;13.60;;
6121;SDS011;3091;51.506;7.672;2023-06-14T09:36:17;14.30;;;13.80;;
6121;SDS011;3091;51.506;7.672;2023-06-14T09:38:56;14.43;;;13.83;;
6121;SDS011;3091;51.506;7.672;2023-06-14T09:43:58;14.10;;;13.60;;
6121;SDS011;3091;51.506;7.672;2023-06-14T09:46:35;13.00;;;12.50;;
6121;SDS011;3091;51.506;7.672;2023-06-14T09:49:02;13.30;;;12.80;;
6121;SDS011;3091;51.506;7.672;2023-06-14T09:51:28;13.40;;;12.90;;
6121;SDS011;3091;51.506;7.672;2023-06-14T09:53:58;12.80;;;12.40;;
6121;SDS011;3091;51.506;7.672;2023-06-14T09:56:29;12.90;;;12.50;;
6121;SDS011;3091;51.506;7.672;2023-06-14T09:58:56;12.90;;;12.30;;
6121;SDS011;3091;51.506;7.672;2023-06-14T10:01:23;12.90;;;12.50;;
6121;SDS011;3091;51.506;7.672;2023-06-14T10:03:52;12.40;;;12.00;;
6121;SDS011;3091;51.506;7.672;2023-06-14T10:06:18;12.60;;;12.20;;
6121;SDS011;3091;51.506;7.672;2023-06-14T10:08:46;14.00;;;13.50;;
6121;SDS011;3091;51.506;7.672;2023-06-14T10:11:13;12.80;;;12.40;;
6121;SDS011;3091;51.506;7.672;2023-06-14T10:13:39;14.70;;;14.10;;
6121;SDS011;3091;51.506;7.672;2023-06-14T10:16:10;13.90;;;13.40;;
6121;SDS011;3091;51.506;7.672;2023-06-14T10:23:48;13.67;;;13.17;;
6121;SDS011;3091;51.506;7.672;2023-06-14T10:26:22;12.70;;;12.30;;
6121;SDS011;3091;51.506;7.672;2023-06-14T10:28:59;12.90;;;12.50;;
6121;SDS011;3091;51.506;7.672;2023-06-14T10:34:12;13.13;;;12.63;;
6121;SDS011;3091;51.506;7.672;2023-06-14T10:36:40;12.90;;;12.40;;
6121;SDS011;3091;51.506;7.672;2023-06-14T10:39:15;12.70;;;12.30;;
6121;SDS011;3091;51.506;7.672;2023-06-14T10:41:42;14.07;;;13.47;;
6121;SDS011;3091;51.506;7.672;2023-06-14T10:46:54;13.17;;;12.67;;
6121;SDS011;3091;51.506;7.672;2023-06-14T10:49:21;14.50;;;13.90;;
6121;SDS011;3091;51.506;7.672;2023-06-14T10:52:05;13.43;;;12.97;;
6121;SDS011;3091;51.506;7.672;2023-06-14T10:57:31;14.50;;;14.00;;
6121;SDS011;3091;51.506;7.672;2023-06-14T10:59:58;13.90;;;13.40;;
6121;SDS011;3091;51.506;7.672;2023-06-14T11:04:54;13.53;;;13.03;;
6121;SDS011;3091;51.506;7.672;2023-06-14T11:12:41;12.80;;;12.40;;
6121;SDS011;3091;51.506;7.672;2023-06-14T11:15:11;13.37;;;12.87;;
6121;SDS011;3091;51.506;7.672;2023-06-14T11:17:37;13.60;;;13.10;;
6121;SDS011;3091;51.506;7.672;2023-06-14T11:20:12;12.90;;;12.50;;
6121;SDS011;3091;51.506;7.672;2023-06-14T11:22:44;13.60;;;13.10;;
6121;SDS011;3091;51.506;7.672;2023-06-14T11:25:11;15.03;;;14.43;;
6121;SDS011;3091;51.506;7.672;2023-06-14T11:27:37;14.50;;;14.00;;
6121;SDS011;3091;51.506;7.672;2023-06-14T11:30:03;14.80;;;14.17;;
6121;SDS011;3091;51.506;7.672;2023-06-14T11:32:31;14.00;;;13.50;;
6121;SDS011;3091;51.506;7.672;2023-06-14T11:34:57;13.90;;;13.40;;
6121;SDS011;3091;51.506;7.672;2023-06-14T11:37:25;14.90;;;14.30;;
6121;SDS011;3091;51.506;7.672;2023-06-14T11:39:51;14.80;;;14.30;;
6121;SDS011;3091;51.506;7.672;2023-06-14T11:42:17;14.13;;;13.63;;
6121;SDS011;3091;51.506;7.672;2023-06-14T11:44:46;14.03;;;13.53;;
6121;SDS011;3091;51.506;7.672;2023-06-14T11:47:12;14.43;;;13.90;;
6121;SDS011;3091;51.506;7.672;2023-06-14T11:49:38;13.97;;;13.47;;
6121;SDS011;3091;51.506;7.672;2023-06-14T11:52:05;13.90;;;13.40;;
6121;SDS011;3091;51.506;7.672;2023-06-14T11:54:31;12.40;;;12.00;;
6121;SDS011;3091;51.506;7.672;2023-06-14T11:56:58;13.20;;;12.80;;
6121;SDS011;3091;51.506;7.672;2023-06-14T11:59:24;13.53;;;13.03;;
6121;SDS011;3091;51.506;7.672;2023-06-14T12:01:52;13.60;;;13.10;;
6121;SDS011;3091;51.506;7.672;2023-06-14T12:04:28;12.87;;;12.47;;
6121;SDS011;3091;51.506;7.672;2023-06-14T12:06:54;13.23;;;12.77;;
6121;SDS011;3091;51.506;7.672;2023-06-14T12:09:22;12.63;;;12.23;;
6121;SDS011;3091;51.506;7.672;2023-06-14T12:11:49;13.50;;;13.00;;
6121;SDS011;3091;51.506;7.672;2023-06-14T12:14:15;13.30;;;12.80;;
6121;SDS011;3091;51.506;7.672;2023-06-14T12:16:41;12.80;;;12.40;;
6121;SDS011;3091;51.506;7.672;2023-06-14T12:19:14;12.90;;;12.50;;
6121;SDS011;3091;51.506;7.672;2023-06-14T12:21:41;13.53;;;13.03;;
6121;SDS011;3091;51.506;7.672;2023-06-14T12:24:09;13.63;;;13.13;;
6121;SDS011;3091;51.506;7.672;2023-06-14T12:26:40;13.37;;;12.90;;
6121;SDS011;3091;51.506;7.672;2023-06-14T12:29:06;12.80;;;12.40;;
6121;SDS011;3091;51.506;7.672;2023-06-14T12:31:32;13.20;;;12.70;;
6121;SDS011;3091;51.506;7.672;2023-06-14T12:33:58;13.20;;;12.70;;
6121;SDS011;3091;51.506;7.672;2023-06-14T12:36:25;13.07;;;12.57;;
6121;SDS011;3091;51.506;7.672;2023-06-14T12:38:51;13.40;;;12.90;;
6121;SDS011;3091;51.506;7.672;2023-06-14T12:41:21;12.73;;;12.33;;
6121;SDS011;3091;51.506;7.672;2023-06-14T12:43:47;14.07;;;13.57;;
6121;SDS011;3091;51.506;7.672;2023-06-14T12:46:20;14.20;;;13.70;;
6121;SDS011;3091;51.506;7.672;2023-06-14T12:48:47;14.50;;;14.00;;
6121;SDS011;3091;51.506;7.672;2023-06-14T12:51:13;14.63;;;13.97;;
6121;SDS011;3091;51.506;7.672;2023-06-14T12:53:38;14.37;;;13.87;;
6121;SDS011;3091;51.506;7.672;2023-06-14T12:56:05;13.80;;;13.30;;
6121;SDS011;3091;51.506;7.672;2023-06-14T12:58:31;14.30;;;13.80;;
6121;SDS011;3091;51.506;7.672;2023-06-14T13:00:57;14.20;;;13.70;;
6121;SDS011;3091;51.506;7.672;2023-06-14T13:03:23;14.30;;;13.80;;
6121;SDS011;3091;51.506;7.672;2023-06-14T13:05:49;14.67;;;14.07;;
6121;SDS011;3091;51.506;7.672;2023-06-14T13:08:17;13.50;;;13.00;;
6121;SDS011;3091;51.506;7.672;2023-06-14T13:10:44;14.50;;;13.97;;
6121;SDS011;3091;51.506;7.672;2023-06-14T13:13:10;13.40;;;12.90;;
6121;SDS011;3091;51.506;7.672;2023-06-14T13:15:37;13.30;;;12.80;;
6121;SDS011;3091;51.506;7.672;2023-06-14T13:18:03;14.57;;;13.97;;
6121;SDS011;3091;51.506;7.672;2023-06-14T13:20:29;14.77;;;14.10;;
6121;SDS011;3091;51.506;7.672;2023-06-14T13:22:56;13.93;;;13.43;;
6121;SDS011;3091;51.506;7.672;2023-06-14T13:25:22;14.57;;;13.97;;
6121;SDS011;3091;51.506;7.672;2023-06-14T13:27:50;13.57;;;13.07;;
6121;SDS011;3091;51.506;7.672;2023-06-14T13:30:16;13.30;;;12.80;;
6121;SDS011;3091;51.506;7.672;2023-06-14T13:32:42;14.30;;;13.80;;
6121;SDS011;3091;51.506;7.672;2023-06-14T13:35:08;13.63;;;13.13;;
6121;SDS011;3091;51.506;7.672;2023-06-14T13:37:34;13.80;;;13.30;;
6121;SDS011;3091;51.506;7.672;2023-06-14T13:40:00;13.80;;;13.30;;
6121;SDS011;3091;51.506;7.672;2023-06-14T13:42:27;13.00;;;12.60;;
6121;SDS011;3091;51.506;7.672;2023-06-14T13:44:56;12.80;;;12.40;;
6121;SDS011;3091;51.506;7.672;2023-06-14T13:47:22;13.00;;;12.60;;
6121;SDS011;3091;51.506;7.672;2023-06-14T13:49:48;14.17;;;13.67;;
6121;SDS011;3091;51.506;7.672;2023-06-14T13:52:14;14.10;;;13.60;;
6121;SDS011;3091;51.506;7.672;2023-06-14T13:54:40;12.90;;;12.50;;
6121;SDS011;3091;51.506;7.672;2023-06-14T13:57:07;13.87;;;13.37;;
6121;SDS011;3091;51.506;7.672;2023-06-14T13:59:36;13.77;;;13.27;;
6121;SDS011;3091;51.506;7.672;2023-06-14T14:02:02;17.73;;;13.33;;
6121;SDS011;3091;51.506;7.672;2023-06-14T14:04:28;14.33;;;13.73;;
6121;SDS011;3091;51.506;7.672;2023-06-14T14:06:57;13.70;;;13.20;;
6121;SDS011;3091;51.506;7.672;2023-06-14T14:09:23;13.83;;;13.33;;
6121;SDS011;3091;51.506;7.672;2023-06-14T14:11:49;13.70;;;13.20;;
6121;SDS011;3091;51.506;7.672;2023-06-14T14:14:15;12.87;;;12.47;;
6121;SDS011;3091;51.506;7.672;2023-06-14T14:16:41;14.13;;;13.63;;
6121;SDS011;3091;51.506;7.672;2023-06-14T14:19:07;13.93;;;13.40;;
6121;SDS011;3091;51.506;7.672;2023-06-14T14:21:33;14.07;;;13.57;;
6121;SDS011;3091;51.506;7.672;2023-06-14T14:24:00;13.90;;;13.40;;
6121;SDS011;3091;51.506;7.672;2023-06-14T14:26:26;13.70;;;13.20;;
6121;SDS011;3091;51.506;7.672;2023-06-14T14:28:52;14.70;;;14.10;;
6121;SDS011;3091;51.506;7.672;2023-06-14T14:31:18;13.93;;;13.43;;
6121;SDS011;3091;51.506;7.672;2023-06-14T14:33:44;14.27;;;13.77;;
6121;SDS011;3091;51.506;7.672;2023-06-14T14:36:12;15.03;;;14.33;;
6121;SDS011;3091;51.506;7.672;2023-06-14T14:38:38;14.53;;;13.93;;
6121;SDS011;3091;51.506;7.672;2023-06-14T14:41:04;13.97;;;13.47;;
6121;SDS011;3091;51.506;7.672;2023-06-14T14:43:33;15.10;;;14.50;;
6121;SDS011;3091;51.506;7.672;2023-06-14T14:45:59;13.97;;;13.47;;
6121;SDS011;3091;51.506;7.672;2023-06-14T14:48:25;14.10;;;13.60;;
6121;SDS011;3091;51.506;7.672;2023-06-14T14:50:51;13.40;;;13.00;;
6121;SDS011;3091;51.506;7.672;2023-06-14T14:53:17;13.87;;;13.37;;
6121;SDS011;3091;51.506;7.672;2023-06-14T14:55:43;14.03;;;13.53;;
6121;SDS011;3091;51.506;7.672;2023-06-14T14:58:11;13.80;;;13.30;;
6121;SDS011;3091;51.506;7.672;2023-06-14T15:00:38;15.00;;;14.30;;
6121;SDS011;3091;51.506;7.672;2023-06-14T15:03:04;13.50;;;13.00;;
6121;SDS011;3091;51.506;7.672;2023-06-14T15:05:30;14.27;;;13.77;;
6121;SDS011;3091;51.506;7.672;2023-06-14T15:07:56;13.40;;;12.90;;
6121;SDS011;3091;51.506;7.672;2023-06-14T15:10:22;14.10;;;13.60;;
6121;SDS011;3091;51.506;7.672;2023-06-14T15:12:48;13.50;;;13.00;;